Etusivu
METAR-TAF:

METAR-TAF

Lentoasemat :

Marshfield Municipal Airport

Marshfield, Wisconsin, Yhdysvallat

Leveyspiiri: 44-38-17N, Pituuspiiri: 090-11-15W, korkeus merenpinnasta: 389 m

Tämänhetkinen sää

Tämä raportti tehtiin 1 tunti ja 7 minuuttia sitten, kello 07.54 UTC
Tuuli 5 kn idästä
Lämpötila -8°C
Kosteus 52%
Ilmanpaine 1018 hPa
Näkyvyys: 16.1 km
Hajanaisia pilviä 3300 ft:n korkeudessa

METAR: KMFI 170754Z AUTO 09005KT 10SM SCT033 M08/M16 A3005 RMK AO2 SLP200 T10781161

Aika: 03:01 (09:01 UTC)


TAF: puuttuu

Säähavainnot ja -ennusteet yli 4000 lentoasemalta (METAR- ja TAF-raportit).

Käytössä olevat sääasemat on merkitty karttaan keltaisilla ja punaisilla pisteillä.

Aseta hiiri pisteen päälle nähdäksesi sääaseman nimen.

Klikkaa sitten nähdäksesi säähavainnot ja -ennusteet.

Kartan vaihtaminen: klikkaa mustalla rastilla varustettuja vihreitä pisteitä, niin voit zoomata sisään; viivalla varustettua vihreää pistettä, niin voit zoomata ulos tai vihreitä nuolia, niin pääset viereisille kartoille.


METAR-TAF: